createdAt,value
2023-03-26T00:01:46.742Z,66.71
2023-03-26T00:04:50.085Z,66.91
2023-03-26T00:07:53.141Z,66.94
2023-03-26T00:10:56.094Z,67.04
2023-03-26T00:13:59.105Z,66.93
2023-03-26T00:17:02.459Z,66.81
2023-03-26T00:20:05.694Z,66.83
2023-03-26T00:23:09.040Z,66.77
2023-03-26T00:26:11.947Z,66.60
2023-03-26T00:29:15.728Z,66.93
2023-03-26T00:32:18.345Z,67.12
2023-03-26T00:35:22.562Z,67.26
2023-03-26T00:38:25.895Z,67.42
2023-03-26T00:41:31.156Z,67.35
2023-03-26T00:44:34.946Z,67.25
2023-03-26T00:47:37.947Z,67.34
2023-03-26T00:50:41.660Z,67.50
2023-03-26T00:53:46.377Z,67.41
2023-03-26T00:56:49.026Z,67.26
2023-03-26T00:59:51.654Z,67.06
2023-03-26T01:02:58.916Z,67.03
2023-03-26T01:06:09.545Z,67.12
2023-03-26T01:09:18.836Z,67.21
2023-03-26T01:12:24.040Z,67.25
2023-03-26T01:15:30.067Z,67.11
2023-03-26T01:18:41.019Z,67.12
2023-03-26T01:21:43.759Z,66.85
2023-03-26T01:24:53.213Z,66.75
2023-03-26T01:27:57.364Z,66.79
2023-03-26T01:31:29.940Z,66.93
2023-03-26T01:34:59.178Z,66.97
2023-03-26T01:38:23.461Z,66.99
2023-03-26T01:41:37.055Z,66.74
2023-03-26T01:44:50.048Z,66.60
2023-03-26T01:47:53.334Z,66.62
2023-03-26T01:50:58.948Z,66.82
2023-03-26T01:54:06.036Z,66.93
2023-03-26T01:57:31.906Z,66.98
2023-03-26T02:00:54.474Z,67.01
2023-03-26T02:04:06.289Z,66.97
2023-03-26T02:07:25.500Z,67.15
2023-03-26T02:10:33.975Z,67.46
2023-03-26T02:13:38.130Z,67.97
2023-03-26T02:16:41.033Z,68.33
2023-03-26T02:19:43.711Z,68.86
2023-03-26T02:22:47.316Z,69.29
2023-03-26T02:25:49.832Z,69.49
2023-03-26T02:28:52.587Z,70.03
2023-03-26T02:31:55.375Z,70.76
2023-03-26T02:35:03.189Z,72.04
2023-03-26T02:38:06.747Z,72.47
2023-03-26T02:41:09.980Z,72.66
2023-03-26T02:44:12.593Z,73.16
2023-03-26T02:47:15.412Z,73.31
2023-03-26T02:50:18.028Z,73.66
2023-03-26T02:53:21.898Z,74.22
2023-03-26T02:56:24.639Z,74.02
2023-03-26T02:59:28.006Z,74.47
2023-03-26T03:02:30.789Z,74.16
2023-03-26T03:05:34.262Z,74.40
2023-03-26T03:08:36.903Z,74.05
2023-03-26T03:11:40.772Z,73.57
2023-03-26T03:14:43.832Z,73.47
2023-03-26T03:17:47.033Z,73.22
2023-03-26T03:20:50.051Z,72.99
2023-03-26T03:23:53.749Z,72.97
2023-03-26T03:26:58.060Z,73.25
2023-03-26T03:30:00.816Z,73.11
2023-03-26T03:33:03.784Z,73.06
2023-03-26T03:36:10.529Z,73.13
2023-03-26T03:39:23.827Z,73.05
2023-03-26T03:42:27.739Z,72.91
2023-03-26T03:45:30.393Z,73.01
2023-03-26T03:48:33.573Z,73.17
2023-03-26T03:51:36.256Z,73.21
2023-03-26T03:54:38.883Z,73.03
2023-03-26T03:57:46.240Z,72.91
2023-03-26T04:00:52.654Z,72.62
2023-03-26T04:03:55.499Z,72.26
2023-03-26T04:07:00.492Z,72.12
2023-03-26T04:10:04.432Z,72.27
2023-03-26T04:13:07.008Z,72.18
2023-03-26T04:16:10.286Z,71.92
2023-03-26T04:19:14.429Z,71.84
2023-03-26T04:22:18.521Z,71.73
2023-03-26T04:25:21.553Z,71.74
2023-03-26T04:28:32.626Z,71.97
2023-03-26T04:31:36.382Z,71.96
2023-03-26T04:34:39.192Z,71.71
2023-03-26T04:37:44.449Z,71.69
2023-03-26T04:40:49.992Z,71.86
2023-03-26T04:43:53.748Z,71.67
2023-03-26T04:46:56.388Z,71.70
2023-03-26T04:49:59.018Z,71.69
2023-03-26T04:53:02.563Z,71.54
2023-03-26T04:56:32.860Z,71.64
2023-03-26T04:59:41.373Z,71.82
2023-03-26T05:02:44.040Z,71.74
2023-03-26T05:05:46.872Z,71.77
2023-03-26T05:08:49.534Z,71.77
2023-03-26T05:11:58.487Z,71.97
2023-03-26T05:15:01.146Z,72.17
2023-03-26T05:18:04.272Z,72.27
2023-03-26T05:21:07.398Z,71.93
2023-03-26T05:24:10.263Z,72.00
2023-03-26T05:27:20.408Z,72.28
2023-03-26T05:30:23.049Z,72.55
2023-03-26T05:33:25.919Z,72.71
2023-03-26T05:36:28.780Z,72.61
2023-03-26T05:39:31.429Z,72.55
2023-03-26T05:42:34.004Z,72.55
2023-03-26T05:45:36.705Z,72.62
2023-03-26T05:48:39.547Z,72.66
2023-03-26T05:51:42.426Z,72.45
2023-03-26T05:54:45.122Z,72.46
2023-03-26T05:57:47.710Z,72.59
2023-03-26T06:01:00.055Z,72.54
2023-03-26T06:04:02.948Z,72.65
2023-03-26T06:07:10.118Z,72.32
2023-03-26T06:10:18.105Z,72.27
2023-03-26T06:13:21.486Z,72.46
2023-03-26T06:16:27.333Z,72.60
2023-03-26T06:19:31.933Z,72.61
2023-03-26T06:22:34.552Z,72.59
2023-03-26T06:25:37.804Z,72.77
2023-03-26T06:28:40.531Z,73.06
2023-03-26T06:31:43.201Z,73.61
2023-03-26T06:34:46.029Z,73.40
2023-03-26T06:37:48.618Z,73.33
2023-03-26T06:40:51.830Z,74.05
2023-03-26T06:43:54.700Z,74.03
2023-03-26T06:46:57.389Z,73.84
2023-03-26T06:50:00.255Z,74.16
2023-03-26T06:53:03.012Z,74.13
2023-03-26T06:56:08.490Z,74.20
2023-03-26T06:59:11.772Z,74.46
2023-03-26T07:02:14.764Z,74.30
2023-03-26T07:05:17.700Z,74.27
2023-03-26T07:08:20.884Z,74.01
2023-03-26T07:11:25.688Z,74.14
2023-03-26T07:14:30.587Z,73.97
2023-03-26T07:17:33.270Z,73.93
2023-03-26T07:20:36.153Z,73.64
2023-03-26T07:23:39.115Z,73.72
2023-03-26T07:27:05.370Z,73.82
2023-03-26T07:30:43.117Z,73.80
2023-03-26T07:34:26.747Z,73.34
2023-03-26T07:37:47.594Z,73.20
2023-03-26T07:41:16.910Z,73.04
2023-03-26T07:44:25.568Z,73.04
2023-03-26T07:47:37.606Z,73.16
2023-03-26T07:50:40.968Z,73.02
2023-03-26T07:53:43.828Z,72.83
2023-03-26T07:56:58.794Z,72.86
2023-03-26T08:00:12.399Z,73.05
2023-03-26T08:04:23.424Z,73.06
2023-03-26T08:07:30.203Z,72.63
2023-03-26T08:10:52.626Z,72.44
2023-03-26T08:14:29.922Z,72.43
2023-03-26T08:17:42.917Z,72.19
2023-03-26T08:20:49.596Z,72.33
2023-03-26T08:24:07.401Z,72.03
2023-03-26T08:27:22.838Z,72.00
2023-03-26T08:30:27.340Z,72.22
2023-03-26T08:33:31.200Z,71.96
2023-03-26T08:36:34.288Z,71.59
2023-03-26T08:39:42.078Z,70.98
2023-03-26T08:43:20.929Z,71.23
2023-03-26T08:46:33.016Z,71.09
2023-03-26T08:50:03.448Z,71.37
2023-03-26T08:53:12.310Z,70.56
2023-03-26T08:56:44.434Z,70.60
2023-03-26T09:00:06.034Z,70.69
2023-03-26T09:03:28.465Z,70.28
2023-03-26T09:07:07.148Z,69.93
2023-03-26T09:10:26.972Z,70.24
2023-03-26T09:13:56.975Z,70.29
2023-03-26T09:17:18.036Z,70.25
2023-03-26T09:20:42.695Z,70.23
2023-03-26T09:23:52.766Z,69.97
2023-03-26T09:27:00.620Z,69.76
2023-03-26T09:30:48.402Z,69.55
2023-03-26T09:34:03.161Z,69.41
2023-03-26T09:37:18.741Z,69.02
2023-03-26T09:40:32.613Z,68.81
2023-03-26T09:43:46.044Z,68.96
2023-03-26T09:47:26.515Z,68.77
2023-03-26T09:50:44.313Z,67.74
2023-03-26T09:54:10.537Z,67.35
2023-03-26T09:57:46.780Z,67.53
2023-03-26T10:01:32.262Z,68.23
2023-03-26T10:05:00.472Z,68.65
2023-03-26T10:08:47.525Z,68.42
2023-03-26T10:12:12.054Z,67.56
2023-03-26T10:15:36.610Z,67.82
2023-03-26T10:18:49.103Z,67.51
2023-03-26T10:22:10.721Z,67.04
2023-03-26T10:25:33.302Z,67.06
2023-03-26T10:28:51.071Z,66.70
2023-03-26T10:32:06.662Z,66.92
2023-03-26T10:35:23.519Z,65.00
2023-03-26T10:38:58.853Z,65.96
2023-03-26T10:42:35.374Z,65.62
2023-03-26T10:46:10.002Z,65.40
2023-03-26T10:49:15.741Z,64.53
2023-03-26T10:52:22.720Z,64.39
2023-03-26T10:55:32.944Z,65.16
2023-03-26T10:58:48.783Z,65.62
2023-03-26T11:02:41.014Z,66.45
2023-03-26T11:05:47.045Z,66.78
2023-03-26T11:09:12.418Z,67.31
2023-03-26T11:12:26.532Z,67.86
2023-03-26T11:15:38.558Z,67.84
2023-03-26T11:18:51.224Z,67.21
2023-03-26T11:22:03.632Z,66.92
2023-03-26T11:25:48.710Z,66.74
2023-03-26T11:29:32.877Z,66.81
2023-03-26T11:32:41.477Z,67.07
2023-03-26T11:35:48.863Z,67.08
2023-03-26T11:38:51.578Z,67.19
2023-03-26T11:42:06.269Z,66.92
2023-03-26T11:45:19.211Z,67.02
2023-03-26T11:48:41.866Z,67.00
2023-03-26T11:51:47.932Z,66.70
2023-03-26T11:54:50.794Z,66.42
2023-03-26T11:57:58.204Z,66.20
2023-03-26T12:01:05.497Z,66.38
2023-03-26T12:04:15.957Z,65.94
2023-03-26T12:07:31.886Z,65.05
2023-03-26T12:10:42.972Z,65.90
2023-03-26T12:14:06.006Z,64.63
2023-03-26T12:17:14.478Z,64.54
2023-03-26T12:20:25.997Z,64.96
2023-03-26T12:23:59.280Z,63.60
2023-03-26T12:27:20.405Z,63.70
2023-03-26T12:30:25.418Z,63.71
2023-03-26T12:33:34.302Z,64.35
2023-03-26T12:36:38.975Z,63.91
2023-03-26T12:40:10.011Z,63.72
2023-03-26T12:44:54.890Z,63.24
2023-03-26T12:47:58.862Z,63.26
2023-03-26T12:51:03.560Z,63.87
2023-03-26T12:54:44.863Z,61.39
2023-03-26T12:58:13.489Z,61.35
2023-03-26T13:01:37.667Z,60.21
2023-03-26T13:05:05.010Z,61.26
2023-03-26T13:08:35.099Z,62.38
2023-03-26T13:11:54.888Z,62.66
2023-03-26T13:15:32.124Z,61.81
2023-03-26T13:19:04.560Z,57.68
2023-03-26T13:22:24.668Z,56.76
2023-03-26T13:25:53.312Z,57.02
2023-03-26T13:29:01.919Z,57.47
2023-03-26T13:32:19.002Z,56.41
2023-03-26T13:35:42.581Z,57.33
2023-03-26T13:38:58.573Z,56.52
2023-03-26T13:42:26.756Z,58.50
2023-03-26T13:45:32.296Z,59.13
2023-03-26T13:48:53.054Z,58.76
2023-03-26T13:52:12.081Z,58.70
2023-03-26T13:55:43.268Z,58.20
2023-03-26T13:59:15.102Z,58.98
2023-03-26T14:02:40.060Z,59.26
2023-03-26T14:05:47.140Z,58.69
2023-03-26T14:08:57.454Z,58.54
2023-03-26T14:12:21.233Z,59.14
2023-03-26T14:15:24.462Z,56.25
2023-03-26T14:18:30.820Z,57.58
2023-03-26T14:21:52.030Z,58.04
2023-03-26T14:25:11.948Z,55.69
2023-03-26T14:29:02.836Z,57.08
2023-03-26T14:32:29.714Z,57.83
2023-03-26T14:35:53.034Z,56.90
2023-03-26T14:39:16.723Z,57.51
2023-03-26T14:42:34.163Z,57.78
2023-03-26T14:45:48.837Z,58.02
2023-03-26T14:49:03.174Z,57.86
2023-03-26T14:52:20.474Z,58.05
2023-03-26T14:55:32.099Z,58.30
2023-03-26T14:59:01.896Z,58.02
2023-03-26T15:02:23.090Z,58.14
2023-03-26T15:05:52.183Z,57.28
2023-03-26T15:09:21.435Z,57.54
2023-03-26T15:12:50.994Z,58.15
2023-03-26T15:16:21.111Z,57.20
2023-03-26T15:19:44.696Z,57.55
2023-03-26T15:23:11.963Z,57.99
2023-03-26T15:26:17.402Z,58.09
2023-03-26T15:29:34.100Z,56.99
2023-03-26T15:32:57.884Z,56.81
2023-03-26T15:36:19.170Z,57.55
2023-03-26T15:39:59.690Z,57.40
2023-03-26T15:43:14.542Z,57.14
2023-03-26T15:46:58.261Z,57.82
2023-03-26T15:50:13.035Z,57.91
2023-03-26T15:53:18.757Z,57.52
2023-03-26T15:56:49.370Z,57.71
2023-03-26T16:00:22.962Z,58.05
2023-03-26T16:04:03.514Z,57.92
2023-03-26T16:07:39.223Z,57.91
2023-03-26T16:10:51.516Z,58.01
2023-03-26T16:14:17.372Z,58.07
2023-03-26T16:17:25.929Z,58.12
2023-03-26T16:20:35.013Z,58.31
2023-03-26T16:23:47.650Z,58.48
2023-03-26T16:27:05.492Z,58.32
2023-03-26T16:30:16.128Z,58.38
2023-03-26T16:33:21.299Z,57.92
2023-03-26T16:36:41.978Z,58.19
2023-03-26T16:39:44.887Z,58.34
2023-03-26T16:43:07.585Z,58.41
2023-03-26T16:46:26.480Z,58.51
2023-03-26T16:49:44.754Z,58.60
2023-03-26T16:52:55.177Z,58.63
2023-03-26T16:56:13.907Z,58.37
2023-03-26T16:59:40.192Z,58.58
2023-03-26T17:03:13.087Z,58.54
2023-03-26T17:06:23.374Z,58.69
2023-03-26T17:09:42.804Z,58.71
2023-03-26T17:13:00.956Z,58.71
2023-03-26T17:16:16.320Z,58.76
2023-03-26T17:19:32.287Z,58.93
2023-03-26T17:22:45.229Z,59.00
2023-03-26T17:26:06.029Z,59.08
2023-03-26T17:29:23.993Z,59.05
2023-03-26T17:33:16.445Z,59.13
2023-03-26T17:36:50.790Z,59.32
2023-03-26T17:40:06.342Z,59.35
2023-03-26T17:43:12.562Z,59.41
2023-03-26T17:46:33.500Z,59.29
2023-03-26T17:49:38.466Z,59.29
2023-03-26T17:52:48.191Z,59.31
2023-03-26T17:55:52.321Z,59.24
2023-03-26T17:59:11.858Z,59.40
2023-03-26T18:02:30.335Z,59.50
2023-03-26T18:05:34.616Z,59.53
2023-03-26T18:09:07.223Z,59.53
2023-03-26T18:12:29.036Z,59.36
2023-03-26T18:15:45.029Z,59.43
2023-03-26T18:19:00.548Z,59.44
2023-03-26T18:22:05.294Z,59.78
2023-03-26T18:25:30.509Z,60.73
2023-03-26T18:28:40.522Z,61.11
2023-03-26T18:32:16.452Z,61.53
2023-03-26T18:35:21.963Z,62.24
2023-03-26T18:38:35.441Z,62.14
2023-03-26T18:41:46.845Z,62.00
2023-03-26T18:44:51.160Z,61.98
2023-03-26T18:47:57.114Z,62.08
2023-03-26T18:51:05.062Z,62.18
2023-03-26T18:54:14.171Z,61.95
2023-03-26T18:57:26.000Z,61.79
2023-03-26T19:00:30.392Z,61.71
2023-03-26T19:03:40.369Z,61.65
2023-03-26T19:06:44.977Z,61.38
2023-03-26T19:09:48.973Z,61.17
2023-03-26T19:12:58.470Z,61.37
2023-03-26T19:16:08.780Z,61.54
2023-03-26T19:19:25.642Z,61.62
2023-03-26T19:22:29.802Z,61.41
2023-03-26T19:25:40.823Z,61.42
2023-03-26T19:28:50.846Z,61.58
2023-03-26T19:32:03.043Z,61.55
2023-03-26T19:35:21.515Z,61.44
2023-03-26T19:38:37.832Z,61.63
2023-03-26T19:41:44.146Z,61.54
2023-03-26T19:44:47.949Z,61.52
2023-03-26T19:51:18.597Z,61.75
2023-03-26T19:51:36.495Z,61.70
2023-03-26T19:55:17.943Z,61.67
2023-03-26T19:58:20.545Z,61.71
2023-03-26T20:01:25.701Z,62.21
2023-03-26T20:04:32.538Z,62.27
2023-03-26T20:07:39.361Z,62.08
2023-03-26T20:10:43.790Z,62.10
2023-03-26T20:13:48.562Z,62.04
2023-03-26T20:16:52.209Z,62.05
2023-03-26T20:19:54.862Z,61.98
2023-03-26T20:22:57.677Z,61.86
2023-03-26T20:26:00.197Z,61.80
2023-03-26T20:29:04.145Z,61.89
2023-03-26T20:32:18.742Z,61.79
2023-03-26T20:35:35.843Z,61.89
2023-03-26T20:38:41.016Z,61.74
2023-03-26T20:41:48.447Z,61.95
2023-03-26T20:44:51.069Z,62.16
2023-03-26T20:47:54.256Z,62.12
2023-03-26T20:50:57.107Z,62.37
2023-03-26T20:54:00.668Z,62.71
2023-03-26T20:57:05.448Z,62.91
2023-03-26T21:00:23.295Z,63.22
2023-03-26T21:03:25.878Z,63.17
2023-03-26T21:06:28.497Z,63.34
2023-03-26T21:09:35.533Z,63.28
2023-03-26T21:12:57.343Z,63.56
2023-03-26T21:16:01.020Z,63.99
2023-03-26T21:19:04.502Z,63.59
2023-03-26T21:22:20.827Z,63.55
2023-03-26T21:26:06.369Z,63.97
2023-03-26T21:29:11.894Z,64.73
2023-03-26T21:32:14.836Z,64.64
2023-03-26T21:35:18.200Z,65.13
2023-03-26T21:38:22.234Z,65.04
2023-03-26T21:41:41.447Z,65.11
2023-03-26T21:44:44.121Z,66.24
2023-03-26T21:47:47.554Z,68.87
2023-03-26T21:50:50.791Z,68.40
2023-03-26T21:53:53.626Z,68.91
2023-03-26T21:57:24.534Z,68.34
2023-03-26T22:00:43.450Z,68.65
2023-03-26T22:03:57.094Z,69.12
2023-03-26T22:07:41.574Z,69.23
2023-03-26T22:10:52.265Z,68.86
2023-03-26T22:13:56.858Z,69.70
2023-03-26T22:16:59.541Z,69.61
2023-03-26T22:20:08.004Z,69.87
2023-03-26T22:23:12.524Z,69.04
2023-03-26T22:26:15.277Z,68.47
2023-03-26T22:29:18.176Z,67.93
2023-03-26T22:32:21.264Z,67.40
2023-03-26T22:35:24.342Z,66.87
2023-03-26T22:38:26.956Z,66.73
2023-03-26T22:41:29.755Z,66.31
2023-03-26T22:44:32.510Z,66.07
2023-03-26T22:47:35.701Z,65.74
2023-03-26T22:50:38.381Z,65.54
2023-03-26T22:53:41.201Z,65.17
2023-03-26T22:56:44.238Z,64.80
2023-03-26T22:59:49.044Z,64.70
2023-03-26T23:02:52.104Z,64.43
2023-03-26T23:05:57.267Z,64.41
2023-03-26T23:08:59.887Z,64.55
2023-03-26T23:12:03.721Z,64.27
2023-03-26T23:15:06.924Z,63.91
2023-03-26T23:18:09.679Z,63.85
2023-03-26T23:21:22.459Z,63.69
2023-03-26T23:24:27.909Z,63.52
2023-03-26T23:27:30.532Z,63.14
2023-03-26T23:30:34.134Z,63.03
2023-03-26T23:33:39.038Z,63.05
2023-03-26T23:36:42.463Z,62.84
2023-03-26T23:39:46.764Z,62.82
2023-03-26T23:42:49.616Z,62.70
2023-03-26T23:45:52.437Z,62.48
2023-03-26T23:48:55.210Z,62.48
2023-03-26T23:51:57.803Z,62.29
2023-03-26T23:55:00.443Z,62.25
2023-03-26T23:58:03.488Z,62.01
